createdAt,value
2018-02-15T00:00:07.027Z,1009.81
2018-02-15T00:01:07.013Z,1009.78
2018-02-15T00:02:07.008Z,1009.81
2018-02-15T00:03:06.972Z,1009.87
2018-02-15T00:04:06.953Z,1009.85
2018-02-15T00:05:06.936Z,1009.93
2018-02-15T00:06:06.930Z,1009.92
2018-02-15T00:07:06.891Z,1009.97
2018-02-15T00:08:06.875Z,1009.93
2018-02-15T00:09:06.872Z,1009.99
2018-02-15T00:10:06.834Z,1009.89
2018-02-15T00:11:06.832Z,1009.86
2018-02-15T00:12:06.809Z,1009.93
2018-02-15T00:13:06.787Z,1009.95
2018-02-15T00:14:06.757Z,1009.90
2018-02-15T00:15:06.741Z,1009.94
2018-02-15T00:16:06.732Z,1009.98
2018-02-15T00:17:06.698Z,1009.99
2018-02-15T00:18:06.693Z,1009.89
2018-02-15T00:19:06.708Z,1009.90
2018-02-15T00:20:06.638Z,1009.92
2018-02-15T00:21:06.619Z,1009.92
2018-02-15T00:22:06.622Z,1009.89
2018-02-15T00:23:06.596Z,1009.83
2018-02-15T00:24:06.562Z,1009.77
2018-02-15T00:25:06.544Z,1009.70
2018-02-15T00:26:06.518Z,1009.68
2018-02-15T00:27:06.504Z,1009.75
2018-02-15T00:28:06.501Z,1009.59
2018-02-15T00:29:06.463Z,1009.55
2018-02-15T00:30:06.446Z,1009.72
2018-02-15T00:31:06.435Z,1009.55
2018-02-15T00:32:06.406Z,1009.49
2018-02-15T00:33:06.401Z,1009.50
2018-02-15T00:34:06.362Z,1009.55
2018-02-15T00:35:06.343Z,1009.49
2018-02-15T00:36:06.326Z,1009.44
2018-02-15T00:37:06.307Z,1009.49
2018-02-15T00:38:06.301Z,1009.45
2018-02-15T00:39:06.269Z,1009.48
2018-02-15T00:40:06.291Z,1009.32
2018-02-15T00:41:08.142Z,1009.27
2018-02-15T00:42:06.208Z,1009.28
2018-02-15T00:43:06.186Z,1009.29
2018-02-15T00:44:06.176Z,1009.20
2018-02-15T00:45:06.149Z,1009.24
2018-02-15T00:46:06.146Z,1009.24
2018-02-15T00:47:06.109Z,1009.27
2018-02-15T00:48:06.092Z,1009.24
2018-02-15T00:49:06.071Z,1009.26
2018-02-15T00:50:06.056Z,1009.13
2018-02-15T00:51:06.049Z,1009.31
2018-02-15T00:52:06.014Z,1009.34
2018-02-15T00:53:05.994Z,1009.37
2018-02-15T00:54:05.973Z,1009.42
2018-02-15T00:55:05.953Z,1009.35
2018-02-15T00:56:05.934Z,1009.40
2018-02-15T00:57:05.928Z,1009.43
2018-02-15T00:58:05.909Z,1009.51
2018-02-15T00:59:05.875Z,1009.41
2018-02-15T01:00:05.854Z,1009.49
2018-02-15T01:01:05.835Z,1009.49
2018-02-15T01:02:05.828Z,1009.43
2018-02-15T01:03:05.797Z,1009.45
2018-02-15T01:04:05.778Z,1009.41
2018-02-15T01:05:05.756Z,1009.39
2018-02-15T01:06:05.740Z,1009.25
2018-02-15T01:07:05.718Z,1009.20
2018-02-15T01:08:05.711Z,1009.17
2018-02-15T01:09:05.680Z,1009.12
2018-02-15T01:10:05.669Z,1009.08
2018-02-15T01:11:05.640Z,1009.13
2018-02-15T01:12:05.619Z,1009.04
2018-02-15T01:13:05.763Z,1009.01
2018-02-15T01:14:05.579Z,1008.97
2018-02-15T01:15:05.562Z,1008.94
2018-02-15T01:16:05.539Z,1008.89
2018-02-15T01:17:05.524Z,1008.81
2018-02-15T01:18:05.503Z,1008.86
2018-02-15T01:19:05.518Z,1008.79
2018-02-15T01:20:05.468Z,1008.65
2018-02-15T01:21:05.439Z,1008.75
2018-02-15T01:22:05.419Z,1008.70
2018-02-15T01:23:05.405Z,1008.79
2018-02-15T01:24:05.380Z,1008.82
2018-02-15T01:25:05.379Z,1008.70
2018-02-15T01:26:05.344Z,1008.77
2018-02-15T01:27:05.340Z,1008.77
2018-02-15T01:28:05.304Z,1008.87
2018-02-15T01:29:05.295Z,1008.70
2018-02-15T01:30:05.281Z,1008.73
2018-02-15T01:31:05.256Z,1008.75
2018-02-15T01:32:05.234Z,1008.66
2018-02-15T01:33:05.223Z,1008.73
2018-02-15T01:34:05.190Z,1008.61
2018-02-15T01:35:05.171Z,1008.51
2018-02-15T01:36:05.164Z,1008.45
2018-02-15T01:37:05.130Z,1008.44
2018-02-15T01:38:05.111Z,1008.53
2018-02-15T01:39:05.089Z,1008.41
2018-02-15T01:40:05.068Z,1008.61
2018-02-15T01:41:05.069Z,1008.56
2018-02-15T01:42:05.031Z,1008.56
2018-02-15T01:43:05.013Z,1008.52
2018-02-15T01:44:04.995Z,1008.55
2018-02-15T01:45:04.990Z,1008.63
2018-02-15T01:46:04.952Z,1008.74
2018-02-15T01:47:04.934Z,1008.75
2018-02-15T01:48:04.914Z,1008.67
2018-02-15T01:49:04.941Z,1008.64
2018-02-15T01:50:04.871Z,1008.71
2018-02-15T01:51:04.874Z,1008.71
2018-02-15T01:52:04.836Z,1008.79
2018-02-15T01:53:04.814Z,1008.78
2018-02-15T01:54:04.798Z,1008.82
2018-02-15T01:55:04.779Z,1008.81
2018-02-15T01:56:04.775Z,1008.70
2018-02-15T01:57:04.740Z,1008.78
2018-02-15T01:58:04.718Z,1008.81
2018-02-15T01:59:04.695Z,1008.72
2018-02-15T02:00:04.680Z,1008.79
2018-02-15T02:01:04.695Z,1008.72
2018-02-15T02:02:04.644Z,1008.69
2018-02-15T02:03:04.622Z,1008.66
2018-02-15T02:04:04.602Z,1008.71
2018-02-15T02:05:04.583Z,1008.66
2018-02-15T02:06:04.564Z,1008.64
2018-02-15T02:07:05.224Z,1008.66
2018-02-15T02:08:04.542Z,1008.72
2018-02-15T02:09:04.501Z,1008.68
2018-02-15T02:10:04.492Z,1008.57
2018-02-15T02:11:04.467Z,1008.66
2018-02-15T02:12:04.460Z,1008.65
2018-02-15T02:13:06.147Z,1008.69
2018-02-15T02:14:04.402Z,1008.80
2018-02-15T02:15:04.386Z,1008.69
2018-02-15T02:16:04.362Z,1008.67
2018-02-15T02:17:04.351Z,1008.64
2018-02-15T02:18:04.343Z,1008.65
2018-02-15T02:19:04.349Z,1008.60
2018-02-15T02:20:04.287Z,1008.62
2018-02-15T02:21:04.271Z,1008.62
2018-02-15T02:22:04.252Z,1008.56
2018-02-15T02:23:04.231Z,1008.50
2018-02-15T02:24:04.209Z,1008.50
2018-02-15T02:25:04.204Z,1008.43
2018-02-15T02:26:04.171Z,1008.41
2018-02-15T02:27:04.152Z,1008.48
2018-02-15T02:28:04.131Z,1008.45
2018-02-15T02:29:04.111Z,1008.40
2018-02-15T02:30:04.091Z,1008.40
2018-02-15T02:31:04.097Z,1008.32
2018-02-15T02:32:04.055Z,1008.39
2018-02-15T02:33:04.033Z,1008.28
2018-02-15T02:34:04.012Z,1008.31
2018-02-15T02:35:03.996Z,1008.36
2018-02-15T02:36:03.978Z,1008.30
2018-02-15T02:37:03.967Z,1008.25
2018-02-15T02:38:03.941Z,1008.31
2018-02-15T02:39:03.919Z,1008.37
2018-02-15T02:40:03.912Z,1008.38
2018-02-15T02:41:03.878Z,1008.43
2018-02-15T02:42:03.859Z,1008.40
2018-02-15T02:43:03.839Z,1008.38
2018-02-15T02:44:03.823Z,1008.38
2018-02-15T02:45:03.803Z,1008.34
2018-02-15T02:46:03.801Z,1008.37
2018-02-15T02:47:03.764Z,1008.33
2018-02-15T02:48:03.741Z,1008.33
2018-02-15T02:49:03.721Z,1008.33
2018-02-15T02:50:03.706Z,1008.35
2018-02-15T02:51:03.687Z,1008.33
2018-02-15T02:52:03.674Z,1008.35
2018-02-15T02:53:03.659Z,1008.22
2018-02-15T02:54:03.628Z,1008.32
2018-02-15T02:55:03.619Z,1008.29
2018-02-15T02:56:03.590Z,1008.32
2018-02-15T02:57:03.589Z,1008.34
2018-02-15T02:58:03.543Z,1008.25
2018-02-15T02:59:03.540Z,1008.33
2018-02-15T03:00:03.522Z,1008.31
2018-02-15T03:01:03.492Z,1008.28
2018-02-15T03:02:03.473Z,1008.26
2018-02-15T03:03:24.461Z,1008.34
2018-02-15T03:04:03.432Z,1008.22
2018-02-15T03:05:03.406Z,1008.29
2018-02-15T03:06:03.391Z,1008.29
2018-02-15T03:07:03.384Z,1008.31
2018-02-15T03:08:03.355Z,1008.23
2018-02-15T03:09:03.346Z,1008.32
2018-02-15T03:10:03.330Z,1008.26
2018-02-15T03:11:03.291Z,1008.21
2018-02-15T03:12:03.269Z,1008.21
2018-02-15T03:13:05.152Z,1008.20
2018-02-15T03:14:03.246Z,1008.24
2018-02-15T03:15:03.214Z,1008.19
2018-02-15T03:16:03.687Z,1008.29
2018-02-15T03:17:03.177Z,1008.20
2018-02-15T03:18:03.153Z,1008.14
2018-02-15T03:19:03.148Z,1008.20
2018-02-15T03:20:03.109Z,1008.16
2018-02-15T03:21:03.095Z,1008.18
2018-02-15T03:22:03.073Z,1008.14
2018-02-15T03:23:03.056Z,1008.17
2018-02-15T03:24:03.047Z,1008.13
2018-02-15T03:25:03.013Z,1008.15
2018-02-15T03:26:02.989Z,1008.11
2018-02-15T03:27:02.974Z,1008.20
2018-02-15T03:28:02.952Z,1008.12
2018-02-15T03:29:02.944Z,1008.12
2018-02-15T03:30:02.914Z,1008.15
2018-02-15T03:31:02.895Z,1008.11
2018-02-15T03:32:02.870Z,1008.17
2018-02-15T03:33:02.860Z,1008.10
2018-02-15T03:34:02.834Z,1007.99
2018-02-15T03:35:02.825Z,1008.08
2018-02-15T03:36:02.793Z,1008.08
2018-02-15T03:37:02.772Z,1008.06
2018-02-15T03:38:02.752Z,1008.06
2018-02-15T03:39:02.730Z,1008.07
2018-02-15T03:40:04.653Z,1008.06
2018-02-15T03:41:02.693Z,1008.11
2018-02-15T03:42:03.193Z,1008.15
2018-02-15T03:43:02.666Z,1008.18
2018-02-15T03:44:02.629Z,1008.19
2018-02-15T03:45:02.626Z,1008.21
2018-02-15T03:46:02.590Z,1008.27
2018-02-15T03:47:02.570Z,1008.28
2018-02-15T03:48:02.566Z,1008.29
2018-02-15T03:49:02.529Z,1008.32
2018-02-15T03:50:02.542Z,1008.38
2018-02-15T03:51:02.490Z,1008.31
2018-02-15T03:52:02.470Z,1008.33
2018-02-15T03:53:02.447Z,1008.31
2018-02-15T03:54:02.431Z,1008.26
2018-02-15T03:55:02.406Z,1008.31
2018-02-15T03:56:02.401Z,1008.30
2018-02-15T03:57:02.385Z,1008.28
2018-02-15T03:58:02.347Z,1008.32
2018-02-15T03:59:02.329Z,1008.31
2018-02-15T04:00:02.305Z,1008.32
2018-02-15T04:01:02.285Z,1008.31
2018-02-15T04:02:02.273Z,1008.32
2018-02-15T04:03:02.245Z,1008.34
2018-02-15T04:04:02.224Z,1008.34
2018-02-15T04:05:02.218Z,1008.34
2018-02-15T04:06:02.249Z,1008.33
2018-02-15T04:07:02.161Z,1008.25
2018-02-15T04:08:02.135Z,1008.31
2018-02-15T04:09:03.155Z,1008.27
2018-02-15T04:10:02.097Z,1008.30
2018-02-15T04:11:02.092Z,1008.29
2018-02-15T04:12:02.075Z,1008.28
2018-02-15T04:13:02.042Z,1008.29
2018-02-15T04:14:02.016Z,1008.29
2018-02-15T04:15:01.996Z,1008.27
2018-02-15T04:16:01.979Z,1008.33
2018-02-15T04:17:01.956Z,1008.25
2018-02-15T04:18:01.952Z,1008.21
2018-02-15T04:19:01.910Z,1008.23
2018-02-15T04:20:01.907Z,1008.21
2018-02-15T04:21:01.869Z,1008.18
2018-02-15T04:22:01.852Z,1008.14
2018-02-15T04:23:01.846Z,1008.16
2018-02-15T04:24:01.808Z,1008.03
2018-02-15T04:25:01.789Z,1008.09
2018-02-15T04:26:01.767Z,1007.97
2018-02-15T04:27:01.742Z,1007.94
2018-02-15T04:28:01.740Z,1007.84
2018-02-15T04:29:01.701Z,1007.90
2018-02-15T04:30:01.684Z,1007.83
2018-02-15T04:31:01.704Z,1007.96
2018-02-15T04:32:01.644Z,1007.91
2018-02-15T04:33:01.621Z,1007.83
2018-02-15T04:34:01.621Z,1007.83
2018-02-15T04:35:01.585Z,1007.92
2018-02-15T04:36:01.560Z,1007.94
2018-02-15T04:37:02.238Z,1007.84
2018-02-15T04:38:01.520Z,1007.92
2018-02-15T04:39:01.498Z,1007.85
2018-02-15T04:40:01.494Z,1007.79
2018-02-15T04:41:01.454Z,1007.79
2018-02-15T04:42:01.436Z,1007.86
2018-02-15T04:43:01.413Z,1007.77
2018-02-15T04:44:01.388Z,1007.84
2018-02-15T04:45:01.390Z,1007.76
2018-02-15T04:46:01.346Z,1007.80
2018-02-15T04:47:01.328Z,1007.74
2018-02-15T04:48:01.308Z,1007.77
2018-02-15T04:49:01.289Z,1007.79
2018-02-15T04:50:01.276Z,1007.74
2018-02-15T04:51:01.249Z,1007.65
2018-02-15T04:52:01.230Z,1007.70
2018-02-15T04:53:01.218Z,1007.72
2018-02-15T04:54:01.178Z,1007.71
2018-02-15T04:55:01.164Z,1007.66
2018-02-15T04:56:01.142Z,1007.62
2018-02-15T04:57:01.136Z,1007.63
2018-02-15T04:58:01.098Z,1007.62
2018-02-15T04:59:01.078Z,1007.69
2018-02-15T05:00:01.058Z,1007.62
2018-02-15T05:01:01.036Z,1007.63
2018-02-15T05:02:01.033Z,1007.53
2018-02-15T05:03:00.994Z,1007.58
2018-02-15T05:04:00.975Z,1007.56
2018-02-15T05:05:00.953Z,1007.60
2018-02-15T05:06:00.929Z,1007.57
2018-02-15T05:07:00.930Z,1007.56
2018-02-15T05:08:00.889Z,1007.61
2018-02-15T05:09:00.870Z,1007.56
2018-02-15T05:10:00.848Z,1007.64
2018-02-15T05:11:00.830Z,1007.60
2018-02-15T05:12:00.809Z,1007.61
2018-02-15T05:13:00.799Z,1007.58
2018-02-15T05:14:00.768Z,1007.60
2018-02-15T05:15:00.743Z,1007.61
2018-02-15T05:16:00.727Z,1007.59
2018-02-15T05:17:00.700Z,1007.67
2018-02-15T05:18:00.697Z,1007.55
2018-02-15T05:19:00.665Z,1007.72
2018-02-15T05:20:00.652Z,1007.62
2018-02-15T05:21:00.618Z,1007.60
2018-02-15T05:22:00.602Z,1007.67
2018-02-15T05:23:00.588Z,1007.66
2018-02-15T05:24:00.553Z,1007.67
2018-02-15T05:25:00.574Z,1007.53
2018-02-15T05:26:00.518Z,1007.61
2018-02-15T05:27:00.494Z,1007.62
2018-02-15T05:28:00.476Z,1007.46
2018-02-15T05:29:00.462Z,1007.46
2018-02-15T05:30:00.432Z,1007.41
2018-02-15T05:31:00.411Z,1007.42
2018-02-15T05:32:00.390Z,1007.40
2018-02-15T05:33:00.369Z,1007.49
2018-02-15T05:34:00.359Z,1007.43
2018-02-15T05:35:00.330Z,1007.41
2018-02-15T05:36:00.307Z,1007.39
2018-02-15T05:37:00.284Z,1007.30
2018-02-15T05:38:00.264Z,1007.21
2018-02-15T05:39:00.258Z,1007.21
2018-02-15T05:40:00.223Z,1007.28
2018-02-15T05:41:00.201Z,1007.29
2018-02-15T05:42:00.178Z,1007.29
2018-02-15T05:43:00.158Z,1007.29
2018-02-15T05:44:00.150Z,1007.31
2018-02-15T05:45:00.118Z,1007.28
2018-02-15T05:46:00.096Z,1007.28
2018-02-15T05:47:00.078Z,1007.22
2018-02-15T05:48:00.054Z,1007.19
2018-02-15T05:49:00.058Z,1007.16
2018-02-15T05:50:00.012Z,1007.13
2018-02-15T05:50:59.992Z,1007.17
2018-02-15T05:51:59.966Z,1007.15
2018-02-15T05:52:59.951Z,1007.08
2018-02-15T05:53:59.928Z,1007.05
2018-02-15T05:54:59.925Z,1007.12
2018-02-15T05:55:59.884Z,1007.04
2018-02-15T05:57:01.159Z,1007.04
2018-02-15T05:57:59.845Z,1007.00
2018-02-15T05:58:59.826Z,1007.05
2018-02-15T05:59:59.819Z,1007.00
2018-02-15T06:00:59.780Z,1007.05
2018-02-15T06:01:59.759Z,1007.06
2018-02-15T06:02:59.740Z,1007.07
2018-02-15T06:03:59.773Z,1007.06
2018-02-15T06:04:59.725Z,1006.96
2018-02-15T06:05:59.678Z,1006.93
2018-02-15T06:06:59.654Z,1006.93
2018-02-15T06:07:59.635Z,1006.95
2018-02-15T06:08:59.608Z,1006.93
2018-02-15T06:09:59.591Z,1007.03
2018-02-15T06:10:59.587Z,1006.97
2018-02-15T06:11:59.550Z,1006.93
2018-02-15T06:12:59.525Z,1006.89
2018-02-15T06:13:59.510Z,1006.86
2018-02-15T06:14:59.489Z,1006.95
2018-02-15T06:15:59.467Z,1006.83
2018-02-15T06:16:59.460Z,1006.88
2018-02-15T06:17:59.430Z,1006.82
2018-02-15T06:18:59.404Z,1006.93
2018-02-15T06:19:59.376Z,1006.81
2018-02-15T06:20:59.360Z,1006.87
2018-02-15T06:21:59.357Z,1006.83
2018-02-15T06:22:59.318Z,1006.85
2018-02-15T06:23:59.303Z,1006.79
2018-02-15T06:24:59.275Z,1006.91
2018-02-15T06:25:59.254Z,1006.90
2018-02-15T06:26:59.234Z,1006.94
2018-02-15T06:27:59.228Z,1006.87
2018-02-15T06:28:59.195Z,1006.93
2018-02-15T06:29:59.173Z,1006.85
2018-02-15T06:30:59.151Z,1006.95
2018-02-15T06:31:59.126Z,1006.97
2018-02-15T06:32:59.109Z,1006.93
2018-02-15T06:33:59.103Z,1006.94
2018-02-15T06:34:59.066Z,1006.92
2018-02-15T06:35:59.044Z,1006.95
2018-02-15T06:36:59.021Z,1006.92
2018-02-15T06:37:59.002Z,1006.99
2018-02-15T06:38:58.996Z,1006.97
2018-02-15T06:39:58.958Z,1006.95
2018-02-15T06:40:58.939Z,1007.00
2018-02-15T06:41:58.937Z,1006.88
2018-02-15T06:42:58.896Z,1006.87
2018-02-15T06:43:58.877Z,1006.71
2018-02-15T06:44:58.887Z,1006.70
2018-02-15T06:45:58.849Z,1006.76
2018-02-15T06:46:58.822Z,1006.84
2018-02-15T06:47:58.785Z,1006.92
2018-02-15T06:48:58.769Z,1006.94
2018-02-15T06:49:58.760Z,1007.04
2018-02-15T06:50:58.727Z,1006.93
2018-02-15T06:51:58.756Z,1006.93
2018-02-15T06:52:58.682Z,1007.00
2018-02-15T06:53:58.666Z,1007.07
2018-02-15T06:54:58.644Z,1006.96
2018-02-15T06:55:58.622Z,1006.97
2018-02-15T06:56:58.619Z,1007.00
2018-02-15T06:57:58.578Z,1006.94
2018-02-15T06:58:58.560Z,1007.01
2018-02-15T06:59:58.536Z,1007.09
2018-02-15T07:00:58.516Z,1007.04
2018-02-15T07:01:58.505Z,1007.01
2018-02-15T07:02:58.475Z,1006.94
2018-02-15T07:03:58.453Z,1006.89
2018-02-15T07:04:58.434Z,1006.97
2018-02-15T07:05:58.409Z,1006.91
2018-02-15T07:06:58.502Z,1006.95
2018-02-15T07:07:58.368Z,1006.90
2018-02-15T07:08:58.348Z,1006.92
2018-02-15T07:09:58.339Z,1007.01
2018-02-15T07:10:58.304Z,1007.10
2018-02-15T07:11:58.323Z,1007.04
2018-02-15T07:12:58.278Z,1007.03
2018-02-15T07:13:58.305Z,1006.92
2018-02-15T07:14:58.218Z,1007.00
2018-02-15T07:15:58.201Z,1006.91
2018-02-15T07:16:58.179Z,1006.89
2018-02-15T07:17:58.170Z,1006.92
2018-02-15T07:18:58.153Z,1006.92
2018-02-15T07:19:58.117Z,1006.84
2018-02-15T07:20:58.109Z,1006.88
2018-02-15T07:21:58.097Z,1006.93
2018-02-15T07:22:58.072Z,1006.97
2018-02-15T07:23:58.034Z,1007.00
2018-02-15T07:24:58.012Z,1006.94
2018-02-15T07:25:57.986Z,1006.95
2018-02-15T07:26:57.967Z,1006.95
2018-02-15T07:27:57.962Z,1006.99
2018-02-15T07:28:57.941Z,1007.04
2018-02-15T07:29:57.905Z,1007.02
2018-02-15T07:30:57.885Z,1007.03
2018-02-15T07:31:57.859Z,1006.95
2018-02-15T07:32:57.844Z,1006.99
2018-02-15T07:33:57.818Z,1007.00
2018-02-15T07:34:57.812Z,1006.96
2018-02-15T07:35:57.773Z,1006.98
2018-02-15T07:36:57.751Z,1006.94
2018-02-15T07:37:57.740Z,1007.06
2018-02-15T07:38:58.698Z,1006.98
2018-02-15T07:39:57.710Z,1006.97
2018-02-15T07:40:57.677Z,1007.01
2018-02-15T07:41:57.654Z,1007.03
2018-02-15T07:42:57.636Z,1007.00
2018-02-15T07:43:57.613Z,1007.09
2018-02-15T07:44:57.597Z,1007.05
2018-02-15T07:45:58.206Z,1007.06
2018-02-15T07:46:57.559Z,1007.09
2018-02-15T07:47:57.533Z,1007.18
2018-02-15T07:48:57.514Z,1007.14
2018-02-15T07:49:57.484Z,1007.15
2018-02-15T07:50:57.463Z,1007.17
2018-02-15T07:51:57.469Z,1007.17
2018-02-15T07:52:57.429Z,1007.18
2018-02-15T07:53:57.416Z,1007.22
2018-02-15T07:54:57.382Z,1007.21
2018-02-15T07:55:57.380Z,1007.10
2018-02-15T07:56:57.374Z,1007.21
2018-02-15T07:57:57.318Z,1007.23
2018-02-15T07:58:57.296Z,1007.20
2018-02-15T07:59:57.271Z,1007.24
2018-02-15T08:00:57.256Z,1007.22
2018-02-15T08:01:57.239Z,1007.17
2018-02-15T08:02:57.232Z,1007.23
2018-02-15T08:03:57.191Z,1007.20
2018-02-15T08:04:57.172Z,1007.21
2018-02-15T08:05:57.151Z,1007.17
2018-02-15T08:06:57.147Z,1007.09
2018-02-15T08:07:57.108Z,1007.16
2018-02-15T08:08:57.110Z,1007.18
2018-02-15T08:09:57.068Z,1007.17
2018-02-15T08:10:57.047Z,1007.15
2018-02-15T08:11:57.025Z,1007.26
2018-02-15T08:12:57.008Z,1007.19
2018-02-15T08:13:57.027Z,1007.23
2018-02-15T08:14:56.982Z,1007.18
2018-02-15T08:15:56.966Z,1007.18
2018-02-15T08:16:56.920Z,1007.23
2018-02-15T08:17:56.908Z,1007.26
2018-02-15T08:18:56.895Z,1007.22
2018-02-15T08:19:57.665Z,1007.30
2018-02-15T08:20:58.665Z,1007.35
2018-02-15T08:21:56.818Z,1007.34
2018-02-15T08:22:56.799Z,1007.32
2018-02-15T08:23:56.776Z,1007.35
2018-02-15T08:24:58.666Z,1007.38
2018-02-15T08:25:56.737Z,1007.38
2018-02-15T08:26:56.741Z,1007.42
2018-02-15T08:27:56.705Z,1007.43
2018-02-15T08:28:57.261Z,1007.36
2018-02-15T08:29:56.651Z,1007.27
2018-02-15T08:30:56.632Z,1007.34
2018-02-15T08:31:56.610Z,1007.28
2018-02-15T08:32:56.605Z,1007.27
2018-02-15T08:33:56.570Z,1007.12
2018-02-15T08:34:56.549Z,1007.13
2018-02-15T08:35:56.538Z,1007.18
2018-02-15T08:36:56.512Z,1007.29
2018-02-15T08:37:56.521Z,1007.27
2018-02-15T08:38:56.470Z,1007.32
2018-02-15T08:39:56.441Z,1007.32
2018-02-15T08:40:56.422Z,1007.36
2018-02-15T08:41:56.404Z,1007.32
2018-02-15T08:42:56.387Z,1007.36
2018-02-15T08:43:56.375Z,1007.42
2018-02-15T08:44:56.342Z,1007.36
2018-02-15T08:45:56.336Z,1007.35
2018-02-15T08:46:56.301Z,1007.41
2018-02-15T08:47:56.279Z,1007.46
2018-02-15T08:48:56.273Z,1007.39
2018-02-15T08:49:56.256Z,1007.45
2018-02-15T08:50:56.216Z,1007.39
2018-02-15T08:51:56.198Z,1007.46
2018-02-15T08:52:56.180Z,1007.39
2018-02-15T08:53:56.160Z,1007.42
2018-02-15T08:54:56.139Z,1007.38
2018-02-15T08:55:56.133Z,1007.38
2018-02-15T08:56:56.094Z,1007.42
2018-02-15T08:57:56.081Z,1007.41
2018-02-15T08:58:56.055Z,1007.39
2018-02-15T08:59:56.058Z,1007.44
2018-02-15T09:00:56.036Z,1007.41
2018-02-15T09:01:55.994Z,1007.40
2018-02-15T09:02:55.976Z,1007.50
2018-02-15T09:03:55.950Z,1007.48
2018-02-15T09:04:55.933Z,1007.51
2018-02-15T09:05:55.915Z,1007.45
2018-02-15T09:06:55.906Z,1007.48
2018-02-15T09:07:55.876Z,1007.52
2018-02-15T09:08:55.846Z,1007.53
2018-02-15T09:09:55.830Z,1007.50
2018-02-15T09:10:55.805Z,1007.61
2018-02-15T09:11:55.796Z,1007.54
2018-02-15T09:12:55.785Z,1007.54
2018-02-15T09:13:55.743Z,1007.60
2018-02-15T09:14:55.729Z,1007.51
2018-02-15T09:15:55.707Z,1007.51
2018-02-15T09:16:55.682Z,1007.56
2018-02-15T09:17:55.668Z,1007.48
2018-02-15T09:18:55.693Z,1007.48
2018-02-15T09:19:55.624Z,1007.50
2018-02-15T09:20:55.599Z,1007.42
2018-02-15T09:21:55.586Z,1007.39
2018-02-15T09:22:55.574Z,1007.39
2018-02-15T09:23:55.544Z,1007.34
2018-02-15T09:24:55.535Z,1007.45
2018-02-15T09:25:55.501Z,1007.45
2018-02-15T09:26:55.478Z,1007.43
2018-02-15T09:27:55.460Z,1007.46
2018-02-15T09:28:55.436Z,1007.50
2018-02-15T09:29:55.418Z,1007.54
2018-02-15T09:30:55.414Z,1007.61
2018-02-15T09:31:55.377Z,1007.54
2018-02-15T09:32:55.358Z,1007.53
2018-02-15T09:33:55.338Z,1007.50
2018-02-15T09:34:55.317Z,1007.50
2018-02-15T09:35:55.313Z,1007.46
2018-02-15T09:36:55.273Z,1007.49
2018-02-15T09:37:55.257Z,1007.57
2018-02-15T09:38:55.239Z,1007.57
2018-02-15T09:39:55.227Z,1007.54
2018-02-15T09:40:55.193Z,1007.50
2018-02-15T09:41:55.205Z,1007.56
2018-02-15T09:42:55.155Z,1007.53
2018-02-15T09:43:55.136Z,1007.52
2018-02-15T09:44:55.113Z,1007.54
2018-02-15T09:45:55.094Z,1007.55
2018-02-15T09:46:55.072Z,1007.62
2018-02-15T09:47:55.069Z,1007.63
2018-02-15T09:48:55.028Z,1007.64
2018-02-15T09:49:55.012Z,1007.63
2018-02-15T09:50:54.999Z,1007.76
2018-02-15T09:51:54.973Z,1007.60
2018-02-15T09:52:54.949Z,1007.65
2018-02-15T09:53:54.943Z,1007.63
2018-02-15T09:54:54.908Z,1007.67
2018-02-15T09:55:54.889Z,1007.68
2018-02-15T09:56:54.876Z,1007.67
2018-02-15T09:57:54.848Z,1007.68
2018-02-15T09:58:54.843Z,1007.79
2018-02-15T09:59:54.809Z,1007.77
2018-02-15T10:00:54.789Z,1007.77
2018-02-15T10:01:54.767Z,1007.73
2018-02-15T10:02:54.748Z,1007.77
2018-02-15T10:03:54.742Z,1007.84
2018-02-15T10:04:54.708Z,1007.85
2018-02-15T10:05:54.689Z,1007.86
2018-02-15T10:06:54.667Z,1007.82
2018-02-15T10:07:54.646Z,1007.76
2018-02-15T10:08:54.641Z,1007.75
2018-02-15T10:09:54.602Z,1007.71
2018-02-15T10:10:54.588Z,1007.71
2018-02-15T10:11:54.562Z,1007.71
2018-02-15T10:12:54.545Z,1007.73
2018-02-15T10:13:54.542Z,1007.79
2018-02-15T10:14:54.534Z,1007.74
2018-02-15T10:15:54.524Z,1007.81
2018-02-15T10:16:54.463Z,1007.80
2018-02-15T10:17:54.445Z,1007.84
2018-02-15T10:18:54.422Z,1007.82
2018-02-15T10:19:54.403Z,1007.80
2018-02-15T10:20:54.402Z,1007.85
2018-02-15T10:21:54.365Z,1007.84
2018-02-15T10:22:54.340Z,1007.80
2018-02-15T10:23:54.323Z,1007.87
2018-02-15T10:24:54.304Z,1007.80
2018-02-15T10:25:54.299Z,1007.81
2018-02-15T10:26:54.284Z,1007.84
2018-02-15T10:27:54.243Z,1007.85
2018-02-15T10:28:54.222Z,1007.85
2018-02-15T10:29:54.200Z,1007.87
2018-02-15T10:30:54.181Z,1007.94
2018-02-15T10:31:54.164Z,1007.95
2018-02-15T10:32:54.156Z,1007.96
2018-02-15T10:33:54.123Z,1007.98
2018-02-15T10:34:54.097Z,1007.99
2018-02-15T10:35:54.082Z,1007.97
2018-02-15T10:36:54.074Z,1007.88
2018-02-15T10:37:54.041Z,1007.91
2018-02-15T10:38:54.036Z,1007.88
2018-02-15T10:39:54.000Z,1007.87
2018-02-15T10:40:53.975Z,1007.85
2018-02-15T10:41:53.957Z,1007.86
2018-02-15T10:42:53.949Z,1007.91
2018-02-15T10:43:53.917Z,1007.93
2018-02-15T10:44:53.938Z,1007.86
2018-02-15T10:45:53.879Z,1007.87
2018-02-15T10:46:53.874Z,1007.84
2018-02-15T10:47:53.834Z,1007.82
2018-02-15T10:48:53.813Z,1007.82
2018-02-15T10:49:53.798Z,1007.84
2018-02-15T10:50:53.817Z,1007.88
2018-02-15T10:51:53.756Z,1007.81
2018-02-15T10:52:53.740Z,1007.90
2018-02-15T10:53:53.734Z,1007.95
2018-02-15T10:54:53.695Z,1007.91
2018-02-15T10:55:53.673Z,1007.90
2018-02-15T10:56:53.657Z,1007.98
2018-02-15T10:58:14.646Z,1008.01
2018-02-15T10:58:53.618Z,1008.02
2018-02-15T10:59:53.594Z,1008.00
2018-02-15T11:00:53.576Z,1008.05
2018-02-15T11:01:53.555Z,1008.05
2018-02-15T11:02:53.535Z,1008.04
2018-02-15T11:03:53.531Z,1008.00
2018-02-15T11:04:53.495Z,1008.01
2018-02-15T11:05:53.474Z,1007.98
2018-02-15T11:06:53.472Z,1008.08
2018-02-15T11:07:53.445Z,1008.05
2018-02-15T11:08:53.415Z,1008.09
2018-02-15T11:09:53.394Z,1008.14
2018-02-15T11:10:53.376Z,1008.12
2018-02-15T11:11:53.370Z,1008.09
2018-02-15T11:12:53.350Z,1008.12
2018-02-15T11:13:54.216Z,1008.14
2018-02-15T11:14:53.310Z,1008.10
2018-02-15T11:15:53.276Z,1008.12
2018-02-15T11:16:53.257Z,1008.13
2018-02-15T11:17:53.235Z,1008.17
2018-02-15T11:18:53.233Z,1008.19
2018-02-15T11:19:53.194Z,1008.15
2018-02-15T11:20:53.174Z,1008.14
2018-02-15T11:21:53.711Z,1008.16
2018-02-15T11:22:53.141Z,1008.12
2018-02-15T11:23:53.118Z,1008.16
2018-02-15T11:24:53.111Z,1008.13
2018-02-15T11:25:53.091Z,1008.16
2018-02-15T11:26:53.056Z,1008.16
2018-02-15T11:27:53.035Z,1008.17
2018-02-15T11:28:53.031Z,1008.11
2018-02-15T11:29:52.997Z,1008.17
2018-02-15T11:30:52.976Z,1008.15
2018-02-15T11:31:52.969Z,1008.15
2018-02-15T11:32:52.940Z,1008.13
2018-02-15T11:33:52.920Z,1008.14
2018-02-15T11:34:52.912Z,1008.12
2018-02-15T11:35:52.878Z,1008.12
2018-02-15T11:36:52.873Z,1008.13
2018-02-15T11:37:52.840Z,1008.12
2018-02-15T11:38:52.815Z,1008.09
2018-02-15T11:39:52.801Z,1008.09
2018-02-15T11:40:52.779Z,1008.12
2018-02-15T11:41:52.778Z,1008.06
2018-02-15T11:42:52.741Z,1008.08
2018-02-15T11:43:52.723Z,1008.14
2018-02-15T11:44:52.697Z,1008.16
2018-02-15T11:45:52.684Z,1008.11
2018-02-15T11:46:52.677Z,1008.15
2018-02-15T11:47:52.671Z,1008.14
2018-02-15T11:48:52.619Z,1008.13
2018-02-15T11:49:52.606Z,1008.22
2018-02-15T11:50:52.584Z,1008.19
2018-02-15T11:51:52.565Z,1008.22
2018-02-15T11:52:52.545Z,1008.30
2018-02-15T11:53:52.545Z,1008.26
2018-02-15T11:54:52.508Z,1008.29
2018-02-15T11:55:52.490Z,1008.31
2018-02-15T11:56:52.466Z,1008.31
2018-02-15T11:57:52.449Z,1008.28
2018-02-15T11:58:52.450Z,1008.33
2018-02-15T11:59:52.411Z,1008.31
2018-02-15T12:00:52.386Z,1008.30
2018-02-15T12:01:52.372Z,1008.38
2018-02-15T12:02:52.352Z,1008.35
2018-02-15T12:03:52.332Z,1008.35
2018-02-15T12:06:24.332Z,1008.35